x

Cape Elizabeth- 45nm Nw Of Aberdeen, Wa (46041) Wave Buoy

5:50 - Wed 10th Feb 2016 All times are PST. -8 hours from GMT.

  • Sig Wave height 5.6ft
  • Swell Direction
  • Peak Period 11s
  • Average Period 7s
  • Wind
    16mph, 20mph gusts
  • Sea Temp 52°f
  • Ar Temp 51°f
  • Sea Pressure 1017.8mb
  • Cape Elizabeth- 45nm Nw Of Aberdeen, Wa
  • Cape Elizabeth- 45nm Nw Of Aberdeen, Wa

More Historic Weather Station data

Upgrade to MSW Pro to gain access to the past 30 days of data for over 8000 Wavebouys and Weather Stations around the globe.

Join Pro

Comparision Forecast

View Surf forecast
   
Qua 02/10 5:50 5.5ft 11s 7s 16 20 mph 1017.8mb 52f 51f
4:50 5.5ft 12s 7s 18 20 mph 1017.7mb 52f 51f
3:50 5ft 11s 7s 16
mph
1017.6mb 52f 51f
2:50 5.5ft 12s 8s 11 13 mph 1017.6mb 52f 51f
1:50 5.5ft 11s 8s 11 13 mph 1018.1mb 52f 52f
12:50 5ft 11s 7s 9 11 mph 1019mb 52f 52f
Ter 02/09 11:50 5ft 11s 7s 9
mph
1019.2mb 52f 52f
10:50 6ft 12s 8s 11 13 mph 1019mb 52f 52f
9:50 5.5ft 11s 8s 9 11 mph 1018.7mb 52f 52f
8:50 6ft 11s 9s 9 11 mph 1018.8mb 52f 52f
7:50 6ft 13s 9s 7 9 mph 1018.7mb 52f 52f
6:50 6.5ft 11s 9s 7 9 mph 1018.7mb 52f 53f
5:50 6.5ft 11s 9s 13 16 mph 1018.8mb 52f 55f
4:50 6ft 12s 9s 11 13 mph 1018.7mb 52f 56f
3:50 7ft 12s 9s 16 18 mph 1018.4mb 52f 60f
2:50 6ft 12s 9s 13
mph
1017.8mb 52f 57f
1:50 6.5ft 13s 8s 13 16 mph 1017.9mb 52f 56f
12:50 6ft 13s 8s 13 16 mph 1018.4mb 52f 56f
11:50 5.5ft 11s 7s 16 18 mph 1018.7mb 52f 56f
10:50 7.5ft 13s 8s 16 20 mph 1019mb 52f 54f
9:50 7ft 13s 8s 18 22 mph 1019.2mb 52f 53f
8:50 7.5ft 14s 8s 18 20 mph 1019.1mb 52f 53f
7:50 7ft 14s 8s 18 20 mph 1019mb 52f 53f
6:50 7ft 12s 8s 16 18 mph 1019.4mb 52f 53f
5:50 8ft 14s 8s 16 20 mph 1019.1mb 52f 53f
4:50 7ft 14s 8s 16 18 mph 1019.4mb 52f 53f
3:50 8ft 15s 8s 18 22 mph 1019.3mb 52f 53f
2:50 9ft 15s 8s 18 22 mph 1019.9mb 52f 54f
1:50 8.5ft 15s 8s 20 25 mph 1019.7mb 52f 55f
12:50 8ft 14s 9s 13 16 mph 1020.5mb 52f 55f
Seg 02/08 11:50 9ft 14s 11s 11 18 mph 1020.6mb 52f 54f
10:50 8.5ft 14s 11s 11 16 mph 1020.7mb 52f 54f
9:50 9ft 14s 12s 11 13 mph 1021.3mb 52f 54f
8:50 9ft 14s 11s 7 9 mph 1021.8mb 52f 53f
7:50 9ft 14s 12s 4 7 mph 1022.4mb 52f 53f
6:50 9ft 14s 11s 4 7 mph 1023.3mb 52f 52f
5:50 9ft 14s 12s 2 4 mph 1024.1mb 52f 52f
4:50 8.5ft 14s 12s 4
mph
1024.4mb 52f 52f
3:50 9.5ft 15s 12s 7
mph
1024.6mb 52f 52f
1:50 9ft 16s 12s 7 9 mph 1025.8mb 52f 52f
12:50 7ft 17s 10s 4 7 mph 1026.9mb 52f 52f
11:50 8ft 16s 10s 7 11 mph 1027.8mb 52f 51f
10:50 8ft 17s 10s 11 13 mph 1028.4mb 52f 50f
9:50 10ft 17s 11s 9 11 mph 1028.8mb 51f 50f
8:50 8.5ft 17s 10s 7 9 mph 1028.6mb 51f 50f
7:50 10ft 17s 11s 7 9 mph 1028.6mb 51f 50f
6:50 12ft 17s 12s 7 11 mph 1029mb 51f 50f
5:50 11ft 17s 11s 13 16 mph 1029mb 51f 50f
4:50 9ft 17s 9s 16 20 mph 1028.9mb 51f 50f
3:50 7.5ft 17s 9s 16 20 mph 1028.9mb 51f 50f
2:50 6.5ft 17s 8s 18 20 mph 1028.9mb 51f 50f
1:50 6ft 17s 9s 13 18 mph 1028.9mb 52f 50f
12:50 5.5ft 12s 8s 9 11 mph 1029.6mb 52f 51f
Dom 02/07 11:50 5ft 12s 8s 4 7 mph 1030.4mb 52f 51f
10:50 5.5ft 12s 8s 7 9 mph 1030.3mb 52f 51f
9:50 5ft 11s 7s 9 11 mph 1030.6mb 52f 51f
8:50 5.5ft 11s 7s 11 13 mph 1030.9mb 52f 51f
7:50 5.5ft 11s 7s 13 16 mph 1031.1mb 52f 52f
6:50 5ft 11s 7s 16 20 mph 1031mb 52f 53f
5:50 5ft 10s 8s 16 20 mph 1031.2mb 52f 53f
4:50 5ft 11s 8s 11 16 mph 1031.5mb 52f 53f
3:50 5.5ft 11s 8s 9 11 mph 1031.8mb 52f 53f
2:50 6ft 12s 8s 9
mph
1031.8mb 52f 52f
1:50 5ft 11s 6s 11 16 mph 1031.7mb 52f 52f
12:50 6.5ft 11s 7s 16 20 mph 1032.2mb 52f 51f
11:50 5.5ft 12s 6s 20 25 mph 1032mb 52f 50f
10:50 6ft 12s 6s 18 22 mph 1032mb 51f 49f
9:50 6ft 12s 6s 20 25 mph 1031.7mb 51f 49f
8:50 7ft 13s 6s 20 25 mph 1031.7mb 51f 49f
7:50 7.5ft 13s 6s 20 27 mph 1030.9mb 52f 49f
6:50 7.5ft 13s 7s 27 31 mph 1030.5mb 52f 48f
5:50 7ft 14s 7s 22 29 mph 1031.2mb 52f 48f
4:50 8ft 14s 7s 22 29 mph 1030.5mb 52f 48f
3:50 8ft 14s 8s 22 27 mph 1030.4mb 52f 47f
2:50 8ft 13s 8s 18 22 mph 1031mb 52f 47f
1:50 9ft 11s 8s 16 20 mph 1030.8mb 52f 47f
12:50 9ft 12s 9s 16 18 mph 1030.9mb 52f 47f
Sáb 02/06 11:50 9.5ft 12s 9s 13 18 mph 1031.1mb 52f 48f
10:50 9.5ft 12s 9s 16 20 mph 1030.8mb 52f 48f
9:50 9ft 12s 8s 16 20 mph 1030.5mb 52f 48f
8:50 10ft 11s 9s 13 16 mph 1030.7mb 52f 49f
7:50 9.5ft 12s 8s 13 16 mph 1030.5mb 52f 49f
6:50 9.5ft 13s 8s 9 11 mph 1030.7mb 52f 49f
5:50 11ft 12s 9s 9 13 mph 1030.6mb 52f 49f
4:50 10.5ft 12s 8s 11 13 mph 1030.5mb 52f 49f
3:50 9.5ft 13s 8s 11 16 mph 1030.3mb 52f 49f
2:50 10ft 13s 8s 13 16 mph 1030.1mb 52f 49f